Bowman, California
Current Conditions -  °F | °C
As of 1:50 PM on Monday 20 Oct 2014 (Local Time) from KTRK Reporting Station
Broken Clouds Broken Clouds  
Wind Chill: 61°   Ceiling: 7000
Heat Index: 61°   Visibility: 10mi
Dew Point: 34°   Wind: 17mph
Humidity: 36%   Direction: 210°SSW
Pressure: 30"   Gusts: 25mph
Location:  39.2432°N, 120.071°W
Report Text: KTRK 202050Z 21015G22KT 10SM BKN070 16/01 A3000 RMK NOSPECI
Loading
Personal Weather Stations






























Interactive Weather Map
Tropical Storm Tracking
New forecast layout! Learn more

10-Day Weather Forecast

Advertisements
Track Severe Weather on mobile